Time;durP1;ratioP1;P1;durP2;ratioP2;P2;SDS_P1;SDS_P2;PMS_P1;PMS_P2;Temp;Humidity;BMP_temperature;BMP_pressure;BME280_temperature;BME280_humidity;BME280_pressure;Samples;Min_cycle;Max_cycle;Signal;HPM_P1;HPM_P2
2023/09/05 00:00:01;;;;;;;4.97;4.40;;;14.60;96.50;;;;;;2063214;28;20245;-69
2023/09/05 00:01:03;;;;;;;4.65;4.25;;;14.40;96.70;;;;;;2063552;28;20305;-68
2023/09/05 00:02:04;;;;;;;5.38;3.80;;;14.50;97.00;;;;;;2062910;28;20218;-71
2023/09/05 00:03:05;;;;;;;4.57;4.00;;;14.50;97.10;;;;;;2062701;28;20281;-68
2023/09/05 00:04:05;;;;;;;5.07;4.40;;;14.40;97.20;;;;;;2063772;28;20648;-67
2023/09/05 00:05:11;;;;;;;4.77;4.30;;;14.40;97.40;;;;;;2065136;28;20193;-68
2023/09/05 00:06:11;;;;;;;4.70;4.20;;;14.40;97.40;;;;;;2065187;28;20198;-68
2023/09/05 00:07:13;;;;;;;5.40;4.13;;;14.40;97.40;;;;;;2071040;28;20199;-68
2023/09/05 00:08:14;;;;;;;4.90;4.30;;;14.40;97.30;;;;;;2064579;28;20194;-68
2023/09/05 00:09:18;;;;;;;8.98;3.90;;;14.40;97.70;;;;;;2066877;28;20654;-68
2023/09/05 00:10:18;;;;;;;5.18;4.20;;;14.30;97.10;;;;;;2056938;28;20191;-68
2023/09/05 00:11:19;;;;;;;6.40;4.07;;;14.30;96.90;;;;;;2064509;28;20213;-68
2023/09/05 00:12:20;;;;;;;4.67;4.17;;;14.30;96.80;;;;;;2064172;28;20256;-70
2023/09/05 00:13:20;;;;;;;5.27;3.97;;;14.30;96.40;;;;;;2056457;28;20274;-68
2023/09/05 00:14:21;;;;;;;6.33;3.80;;;14.30;96.50;;;;;;2055783;28;20307;-67
2023/09/05 00:15:22;;;;;;;5.90;4.10;;;14.20;96.50;;;;;;2063346;28;20281;-67
2023/09/05 00:16:23;;;;;;;4.37;3.97;;;14.30;97.00;;;;;;2063910;28;20233;-68
2023/09/05 00:17:24;;;;;;;4.53;4.13;;;14.20;97.30;;;;;;2060748;28;20312;-68
2023/09/05 00:18:25;;;;;;;4.50;3.83;;;14.20;96.70;;;;;;2064507;28;20614;-69
2023/09/05 00:19:26;;;;;;;4.30;3.90;;;14.30;96.40;;;;;;2066512;28;20238;-68
2023/09/05 00:20:26;;;;;;;4.13;3.73;;;14.30;96.40;;;;;;2066059;28;20237;-68
2023/09/05 00:21:27;;;;;;;5.83;4.73;;;14.20;96.60;;;;;;2063923;28;20222;-68
2023/09/05 00:22:28;;;;;;;6.03;4.33;;;14.20;96.70;;;;;;2063851;28;20221;-70
2023/09/05 00:23:29;;;;;;;6.77;4.20;;;14.20;96.80;;;;;;2068314;28;20592;-68
2023/09/05 00:24:39;;;;;;;5.85;4.00;;;14.30;96.90;;;;;;2064350;28;20527;-68
2023/09/05 00:25:39;;;;;;;5.32;3.85;;;14.20;96.90;;;;;;2064389;28;20380;-68
2023/09/05 00:26:40;;;;;;;5.10;3.90;;;14.20;97.00;;;;;;2063769;28;20226;-68
2023/09/05 00:27:41;;;;;;;4.87;3.87;;;14.10;97.00;;;;;;2066503;28;20223;-69
2023/09/05 00:28:43;;;;;;;5.47;4.50;;;14.10;96.70;;;;;;2066760;28;20777;-68
2023/09/05 00:29:43;;;;;;;4.03;3.63;;;14.10;96.70;;;;;;2064470;28;20613;-69
2023/09/05 00:30:45;;;;;;;4.43;3.87;;;14.10;96.60;;;;;;2064316;28;20257;-68
2023/09/05 00:31:47;;;;;;;5.60;4.40;;;14.10;96.50;;;;;;2055726;28;20319;-68
2023/09/05 00:32:48;;;;;;;4.75;4.10;;;14.10;96.70;;;;;;2047733;28;20223;-68
2023/09/05 00:33:48;;;;;;;4.43;4.00;;;14.10;97.00;;;;;;2063939;28;20703;-68
2023/09/05 00:34:49;;;;;;;4.93;4.20;;;14.10;97.00;;;;;;2064124;28;20229;-68
2023/09/05 00:35:53;;;;;;;5.57;3.70;;;14.10;97.10;;;;;;2064432;28;20309;-68
2023/09/05 00:36:54;;;;;;;4.85;4.10;;;14.00;97.20;;;;;;2063891;28;20237;-69
2023/09/05 00:37:54;;;;;;;5.47;4.40;;;14.00;97.30;;;;;;2063994;28;20574;-68
2023/09/05 00:38:55;;;;;;;5.00;4.10;;;14.00;97.10;;;;;;2066446;28;20775;-68
2023/09/05 00:39:56;;;;;;;4.77;4.33;;;13.90;97.30;;;;;;2063752;28;20241;-68
2023/09/05 00:40:56;;;;;;;4.60;4.20;;;14.00;97.40;;;;;;2055283;28;20231;-68
2023/09/05 00:41:57;;;;;;;4.57;4.17;;;14.00;97.50;;;;;;2055512;28;20669;-68
2023/09/05 00:42:58;;;;;;;7.17;4.30;;;14.00;97.50;;;;;;2051884;28;20227;-68
2023/09/05 00:43:59;;;;;;;4.77;4.20;;;13.90;97.50;;;;;;2059630;28;20734;-68
2023/09/05 00:45:00;;;;;;;6.78;4.97;;;13.90;97.70;;;;;;2061579;28;20225;-68
2023/09/05 00:46:01;;;;;;;6.23;4.53;;;13.90;97.70;;;;;;2063858;28;20256;-68
2023/09/05 00:47:01;;;;;;;4.43;4.00;;;13.90;97.70;;;;;;2063754;28;20248;-68
2023/09/05 00:48:07;;;;;;;5.33;4.53;;;13.90;97.80;;;;;;2063609;28;20238;-69
2023/09/05 00:49:10;;;;;;;6.53;4.30;;;13.80;97.90;;;;;;2065630;28;20575;-69
2023/09/05 00:50:11;;;;;;;5.60;4.43;;;13.80;97.90;;;;;;2056768;28;20190;-68
2023/09/05 00:51:12;;;;;;;4.40;4.00;;;13.80;97.80;;;;;;2063618;28;20671;-68
2023/09/05 00:52:14;;;;;;;6.20;4.40;;;13.80;98.30;;;;;;2055759;28;20269;-68
2023/09/05 00:53:15;;;;;;;4.85;3.92;;;13.70;98.10;;;;;;2060909;28;20238;-67
2023/09/05 00:54:16;;;;;;;5.47;4.97;;;13.70;98.20;;;;;;2059499;28;20598;-67
2023/09/05 00:55:17;;;;;;;5.97;4.80;;;13.70;98.30;;;;;;2063791;28;20198;-67
2023/09/05 00:56:17;;;;;;;5.87;4.23;;;13.70;98.50;;;;;;2063924;28;20427;-67
2023/09/05 00:57:19;;;;;;;4.43;4.00;;;13.70;98.60;;;;;;2055604;28;20586;-67
2023/09/05 00:58:20;;;;;;;6.03;4.70;;;13.60;98.90;;;;;;2063730;28;20714;-67
2023/09/05 00:59:21;;;;;;;4.72;4.20;;;13.50;98.90;;;;;;2063353;28;20290;-67
2023/09/05 01:00:22;;;;;;;5.05;4.55;;;13.50;99.10;;;;;;2055591;28;20197;-67
2023/09/05 01:01:23;;;;;;;5.10;4.60;;;13.50;99.30;;;;;;2046858;28;20247;-67
2023/09/05 01:02:23;;;;;;;5.10;4.60;;;13.40;99.20;;;;;;2054906;28;20460;-67
2023/09/05 01:03:24;;;;;;;6.47;4.80;;;13.40;99.30;;;;;;2058933;28;20376;-67
2023/09/05 01:04:26;;;;;;;5.10;4.60;;;13.40;99.30;;;;;;2058669;28;20253;-68
2023/09/05 01:05:33;;;;;;;6.72;4.65;;;13.40;99.30;;;;;;2063257;28;20226;-67
2023/09/05 01:06:47;;;;;;;4.95;4.00;;;13.40;99.40;;;;;;2063418;28;20313;-67
2023/09/05 01:08:10;;;;;;;5.53;4.32;;;13.40;99.30;;;;;;2053665;28;20698;-68
2023/09/05 01:09:23;;;;;;;5.18;4.28;;;13.40;99.30;;;;;;2055677;28;20265;-67
2023/09/05 01:10:38;;;;;;;6.82;4.72;;;13.40;99.10;;;;;;2054097;28;20262;-67
2023/09/05 01:11:40;;;;;;;5.18;4.47;;;13.40;99.10;;;;;;2054662;28;20298;-68
2023/09/05 01:12:41;;;;;;;5.38;4.38;;;13.40;99.00;;;;;;2063069;28;20889;-69
2023/09/05 01:13:42;;;;;;;6.50;4.57;;;13.40;99.10;;;;;;2071176;28;20273;-67
2023/09/05 01:14:42;;;;;;;5.30;4.77;;;13.40;99.20;;;;;;2073314;28;20622;-67
2023/09/05 01:15:43;;;;;;;6.30;4.80;;;13.30;99.20;;;;;;2055629;28;20309;-71
2023/09/05 01:16:45;;;;;;;6.40;4.70;;;13.30;99.10;;;;;;2044272;28;20219;-67
2023/09/05 01:17:45;;;;;;;4.93;4.43;;;13.30;99.40;;;;;;2055549;28;20227;-67
2023/09/05 01:18:46;;;;;;;7.00;4.57;;;13.30;99.20;;;;;;2064537;28;20226;-67
2023/09/05 01:19:53;;;;;;;5.23;4.50;;;13.30;99.40;;;;;;2064202;28;20252;-69
2023/09/05 01:21:34;;;;;;;6.40;4.50;;;13.20;99.50;;;;;;2055163;28;20480;-68
2023/09/05 01:22:59;;;;;;;4.93;4.15;;;13.30;99.40;;;;;;2057247;28;20567;-67
2023/09/05 01:24:19;;;;;;;6.03;4.30;;;13.20;99.40;;;;;;2059217;28;20234;-67
2023/09/05 01:25:21;;;;;;;4.70;4.30;;;13.20;99.50;;;;;;2055777;28;20327;-67
2023/09/05 01:26:22;;;;;;;5.93;4.07;;;13.10;99.40;;;;;;2062858;28;20691;-67
2023/09/05 01:27:26;;;;;;;4.78;4.22;;;13.10;99.50;;;;;;2054723;28;20241;-67
2023/09/05 01:28:28;;;;;;;4.80;4.32;;;13.10;99.60;;;;;;2045967;28;20242;-67
2023/09/05 01:29:35;;;;;;;4.50;4.10;;;13.10;99.60;;;;;;2055183;28;20293;-69
2023/09/05 01:30:36;;;;;;;4.78;4.28;;;13.10;99.50;;;;;;2056003;28;20227;-68
2023/09/05 01:31:39;;;;;;;5.78;4.32;;;13.10;99.30;;;;;;2055216;28;20282;-67
2023/09/05 01:32:39;;;;;;;5.05;4.07;;;13.20;99.30;;;;;;2061443;28;20230;-67
2023/09/05 01:33:40;;;;;;;4.30;3.90;;;13.10;99.20;;;;;;2064055;28;20296;-67
2023/09/05 01:34:41;;;;;;;5.20;3.83;;;13.20;99.00;;;;;;2062846;28;20305;-67
2023/09/05 01:35:42;;;;;;;4.20;3.80;;;13.10;99.10;;;;;;2058885;28;20222;-68
2023/09/05 01:36:43;;;;;;;5.68;4.53;;;13.10;99.10;;;;;;2070558;28;20222;-67
2023/09/05 01:37:44;;;;;;;6.37;4.23;;;13.10;99.00;;;;;;2063747;28;20301;-67
2023/09/05 01:38:45;;;;;;;4.50;4.10;;;13.20;99.50;;;;;;2062184;28;20308;-68
2023/09/05 01:39:45;;;;;;;4.83;4.10;;;13.10;98.90;;;;;;2062978;28;20226;-67
2023/09/05 01:40:46;;;;;;;4.10;3.70;;;13.10;98.90;;;;;;2054850;28;20281;-68
2023/09/05 01:41:49;;;;;;;5.57;4.43;;;13.00;98.90;;;;;;2051684;28;20254;-67
2023/09/05 01:42:49;;;;;;;4.75;4.07;;;13.10;99.70;;;;;;2051806;28;20251;-67
2023/09/05 01:43:50;;;;;;;6.00;4.00;;;13.10;99.40;;;;;;2055165;28;20239;-67
2023/09/05 01:44:51;;;;;;;4.83;4.33;;;13.10;99.50;;;;;;2057170;28;20222;-67
2023/09/05 01:45:51;;;;;;;5.43;4.30;;;13.10;99.50;;;;;;2057947;28;20226;-68
2023/09/05 01:46:52;;;;;;;5.00;4.50;;;13.00;99.40;;;;;;2064067;28;20222;-67
2023/09/05 01:47:53;;;;;;;5.30;4.20;;;13.10;99.50;;;;;;2063360;28;20229;-67
2023/09/05 01:48:53;;;;;;;5.90;4.33;;;13.00;99.50;;;;;;2063545;28;20222;-68
2023/09/05 01:49:54;;;;;;;5.63;4.57;;;13.00;99.60;;;;;;2063074;28;20237;-67
2023/09/05 01:50:55;;;;;;;4.50;4.05;;;12.90;99.80;;;;;;2067344;28;20351;-67
2023/09/05 01:51:56;;;;;;;5.73;4.47;;;12.90;99.70;;;;;;2066212;28;20232;-67
2023/09/05 01:52:57;;;;;;;5.33;3.97;;;12.90;99.70;;;;;;2065888;28;20229;-68
2023/09/05 01:53:58;;;;;;;6.80;4.70;;;12.90;99.60;;;;;;2064636;28;20288;-67
2023/09/05 01:54:58;;;;;;;5.20;4.43;;;12.90;99.60;;;;;;2064869;28;20420;-68
2023/09/05 01:55:59;;;;;;;5.07;4.30;;;12.90;99.60;;;;;;2063697;28;20694;-67
2023/09/05 01:57:00;;;;;;;5.10;4.60;;;12.80;99.70;;;;;;2049858;28;20232;-67
2023/09/05 01:58:00;;;;;;;5.40;4.10;;;12.80;99.80;;;;;;2051167;28;20683;-68
2023/09/05 01:59:01;;;;;;;8.23;4.87;;;12.80;99.80;;;;;;2063799;28;20222;-67
2023/09/05 02:00:02;;;;;;;5.00;4.17;;;12.90;99.80;;;;;;2062577;28;20237;-67
2023/09/05 02:01:03;;;;;;;4.85;4.45;;;12.90;99.90;;;;;;2061199;28;20715;-68
2023/09/05 02:02:04;;;;;;;4.90;4.40;;;12.80;99.90;;;;;;2062306;28;20186;-67
2023/09/05 02:03:04;;;;;;;4.90;4.40;;;12.60;99.90;;;;;;2054521;28;20703;-67
2023/09/05 02:04:05;;;;;;;6.17;4.70;;;12.60;99.90;;;;;;2065000;28;20201;-68
2023/09/05 02:05:07;;;;;;;4.67;4.23;;;12.50;99.90;;;;;;2062905;28;20649;-68
2023/09/05 02:06:08;;;;;;;5.15;4.47;;;12.60;99.90;;;;;;2062689;28;20288;-68
2023/09/05 02:07:09;;;;;;;6.78;4.43;;;12.60;99.90;;;;;;2063280;28;20194;-67
2023/09/05 02:08:11;;;;;;;5.00;4.50;;;12.70;99.90;;;;;;2062326;28;20183;-67
2023/09/05 02:09:12;;;;;;;4.90;4.35;;;12.70;99.90;;;;;;2062852;28;20194;-67
2023/09/05 02:10:12;;;;;;;4.80;4.30;;;12.70;99.90;;;;;;2062515;28;20218;-67
2023/09/05 02:11:14;;;;;;;4.90;4.40;;;12.70;99.90;;;;;;2054002;28;20643;-68
2023/09/05 02:12:15;;;;;;;5.00;4.40;;;12.70;99.90;;;;;;2054227;28;20702;-67
2023/09/05 02:13:19;;;;;;;4.78;4.28;;;12.70;99.90;;;;;;2058947;28;20210;-67
2023/09/05 02:14:19;;;;;;;4.97;4.38;;;12.70;99.90;;;;;;2062023;28;20258;-67
2023/09/05 02:15:20;;;;;;;4.90;4.50;;;12.70;99.80;;;;;;2062495;28;20736;-67
2023/09/05 02:16:23;;;;;;;4.57;4.10;;;12.70;99.60;;;;;;2062691;28;20197;-67
2023/09/05 02:17:24;;;;;;;6.00;4.50;;;12.70;99.70;;;;;;2062334;28;20826;-67
2023/09/05 02:18:25;;;;;;;4.93;4.33;;;12.60;99.70;;;;;;2062874;28;20325;-67
2023/09/05 02:19:27;;;;;;;4.37;3.97;;;12.70;99.60;;;;;;2054562;28;20242;-67
2023/09/05 02:20:28;;;;;;;12.88;4.32;;;12.60;99.60;;;;;;2062217;28;20237;-67
2023/09/05 02:21:29;;;;;;;5.83;4.13;;;12.60;99.50;;;;;;2070195;28;20612;-67
2023/09/05 02:22:29;;;;;;;5.83;4.40;;;12.60;99.40;;;;;;2070984;28;20806;-67
2023/09/05 02:23:30;;;;;;;4.43;4.00;;;12.60;99.40;;;;;;2063689;28;20234;-67
2023/09/05 02:24:31;;;;;;;5.13;3.87;;;12.60;99.20;;;;;;2069976;28;20226;-67
2023/09/05 02:25:32;;;;;;;4.00;3.60;;;12.60;99.20;;;;;;2070395;28;20261;-67
2023/09/05 02:26:33;;;;;;;5.13;4.13;;;12.60;99.20;;;;;;2062078;28;20217;-67
2023/09/05 02:27:33;;;;;;;5.20;3.90;;;12.60;99.40;;;;;;2062873;28;20232;-67
2023/09/05 02:28:34;;;;;;;4.80;3.77;;;12.50;99.40;;;;;;2062038;28;20628;-67
2023/09/05 02:29:35;;;;;;;4.47;4.07;;;12.50;99.60;;;;;;2062124;28;20265;-67
2023/09/05 02:30:40;;;;;;;5.20;3.93;;;12.50;99.70;;;;;;2063411;28;20261;-67
2023/09/05 02:31:41;;;;;;;5.85;4.22;;;12.40;99.80;;;;;;2072348;28;20312;-67
2023/09/05 02:32:43;;;;;;;4.23;3.83;;;12.40;99.70;;;;;;2072248;28;20724;-67
2023/09/05 02:33:44;;;;;;;4.72;4.10;;;12.40;99.70;;;;;;2062154;28;20718;-67
2023/09/05 02:34:52;;;;;;;4.27;3.87;;;12.40;99.70;;;;;;2054501;28;20289;-68
2023/09/05 02:35:53;;;;;;;5.47;3.95;;;12.40;99.60;;;;;;2055071;28;20472;-67
2023/09/05 02:36:54;;;;;;;5.03;3.90;;;12.40;99.50;;;;;;2063105;28;20245;-67
2023/09/05 02:37:55;;;;;;;4.25;3.85;;;12.40;99.50;;;;;;2070064;28;20257;-67
2023/09/05 02:38:58;;;;;;;5.32;4.00;;;12.40;99.40;;;;;;2069279;28;20228;-67
2023/09/05 02:39:59;;;;;;;4.13;3.50;;;12.40;99.50;;;;;;2065236;28;20225;-67
2023/09/05 02:40:59;;;;;;;4.75;3.42;;;12.40;99.30;;;;;;2056213;28;20237;-67
2023/09/05 02:42:00;;;;;;;3.90;3.20;;;12.40;99.00;;;;;;2054057;28;20226;-67
2023/09/05 02:43:01;;;;;;;4.30;3.70;;;12.40;98.30;;;;;;2061174;28;20234;-67
2023/09/05 02:44:02;;;;;;;3.53;3.13;;;12.40;98.30;;;;;;2063126;28;20225;-67
2023/09/05 02:45:03;;;;;;;3.57;3.20;;;12.40;97.90;;;;;;2062785;28;20218;-69
2023/09/05 02:46:03;;;;;;;3.63;3.25;;;12.30;98.00;;;;;;2063536;28;20185;-69
2023/09/05 02:47:04;;;;;;;3.60;3.30;;;12.30;98.10;;;;;;2063072;28;20280;-67
2023/09/05 02:48:06;;;;;;;3.77;3.37;;;12.30;98.40;;;;;;2065234;28;20268;-67
2023/09/05 02:49:07;;;;;;;6.13;3.60;;;12.30;98.40;;;;;;2064761;28;20181;-67
2023/09/05 02:50:08;;;;;;;5.10;3.70;;;12.30;98.40;;;;;;2061375;28;20214;-68
2023/09/05 02:51:11;;;;;;;3.53;3.20;;;12.30;98.40;;;;;;2062539;28;20206;-67
2023/09/05 02:52:12;;;;;;;4.45;3.60;;;12.30;98.30;;;;;;2068630;28;20186;-68
2023/09/05 02:53:12;;;;;;;4.57;3.37;;;12.30;98.10;;;;;;2062204;28;20651;-67
2023/09/05 02:54:13;;;;;;;4.00;3.03;;;12.30;98.10;;;;;;2062794;28;20582;-67
2023/09/05 02:55:15;;;;;;;3.73;3.33;;;12.30;98.10;;;;;;2062681;28;20245;-67
2023/09/05 02:56:17;;;;;;;4.07;3.67;;;12.20;98.10;;;;;;2061731;28;20182;-67
2023/09/05 02:57:18;;;;;;;3.60;3.30;;;12.20;98.10;;;;;;2066274;28;20189;-67
2023/09/05 02:58:19;;;;;;;3.75;3.22;;;12.20;98.30;;;;;;2064457;28;20186;-68
2023/09/05 02:59:20;;;;;;;4.20;3.80;;;12.20;98.20;;;;;;2064681;28;20703;-67
2023/09/05 03:00:22;;;;;;;3.80;3.40;;;12.20;98.10;;;;;;2061396;28;20190;-67
2023/09/05 03:01:22;;;;;;;5.38;3.70;;;12.20;98.10;;;;;;2061231;28;20238;-67
2023/09/05 03:02:24;;;;;;;3.90;3.40;;;12.20;98.20;;;;;;2063205;28;20791;-67
2023/09/05 03:03:25;;;;;;;4.90;3.50;;;12.20;98.30;;;;;;2059967;28;20253;-67
2023/09/05 03:04:26;;;;;;;3.77;3.40;;;12.20;98.20;;;;;;2053047;28;20696;-67
2023/09/05 03:05:27;;;;;;;4.28;3.40;;;12.20;98.30;;;;;;2053073;28;20227;-67
2023/09/05 03:06:28;;;;;;;3.87;3.47;;;12.10;98.40;;;;;;2061935;28;20620;-67
2023/09/05 03:07:28;;;;;;;4.47;3.43;;;12.10;98.40;;;;;;2071938;28;20721;-67
2023/09/05 03:08:29;;;;;;;4.33;3.40;;;12.10;98.40;;;;;;2070629;28;20221;-67
2023/09/05 03:09:30;;;;;;;4.10;3.70;;;12.10;98.70;;;;;;2063380;28;20222;-67
2023/09/05 03:10:30;;;;;;;6.03;3.67;;;12.10;98.40;;;;;;2059767;28;20581;-67
2023/09/05 03:11:32;;;;;;;3.93;3.23;;;12.10;98.50;;;;;;2061347;28;20226;-67
2023/09/05 03:12:32;;;;;;;4.63;3.50;;;12.00;98.60;;;;;;2061107;28;20222;-68
2023/09/05 03:13:33;;;;;;;4.13;3.73;;;12.10;98.50;;;;;;2061332;28;20266;-67
2023/09/05 03:14:34;;;;;;;4.17;3.73;;;12.10;98.50;;;;;;2058540;28;20225;-67
2023/09/05 03:15:34;;;;;;;3.77;3.37;;;12.10;98.50;;;;;;2061982;28;20222;-67
2023/09/05 03:16:35;;;;;;;7.23;4.17;;;12.10;98.50;;;;;;2069581;28;20253;-67
2023/09/05 03:17:36;;;;;;;4.80;3.73;;;12.10;98.50;;;;;;2061656;28;20765;-67
2023/09/05 03:18:36;;;;;;;3.97;3.53;;;12.00;98.50;;;;;;2061355;28;20276;-67
2023/09/05 03:19:38;;;;;;;5.43;3.90;;;12.00;98.40;;;;;;2068730;28;20225;-67
2023/09/05 03:20:39;;;;;;;4.65;3.63;;;12.00;98.40;;;;;;2062399;28;20633;-67
2023/09/05 03:21:40;;;;;;;3.93;3.53;;;12.10;98.40;;;;;;2062539;28;20236;-67
2023/09/05 03:22:41;;;;;;;4.30;3.60;;;12.00;98.50;;;;;;2062094;28;20225;-67
2023/09/05 03:23:42;;;;;;;5.20;3.50;;;12.00;98.60;;;;;;2053580;28;20794;-67
2023/09/05 03:24:42;;;;;;;4.50;3.73;;;12.00;98.60;;;;;;2062050;28;20280;-67
2023/09/05 03:25:44;;;;;;;3.77;3.37;;;12.00;98.60;;;;;;2053973;28;20316;-67
2023/09/05 03:26:46;;;;;;;3.72;3.33;;;12.00;98.80;;;;;;2048437;28;20227;-67
2023/09/05 03:27:47;;;;;;;4.50;3.90;;;11.90;98.70;;;;;;2065019;28;20224;-67
2023/09/05 03:28:47;;;;;;;4.37;3.90;;;11.90;98.80;;;;;;2064875;28;20224;-67
2023/09/05 03:29:48;;;;;;;5.30;3.97;;;11.90;98.70;;;;;;2062578;28;20653;-67
2023/09/05 03:30:49;;;;;;;4.77;3.73;;;11.90;98.70;;;;;;2061186;28;20226;-67
2023/09/05 03:31:49;;;;;;;4.87;3.37;;;11.90;98.60;;;;;;2054396;28;20227;-67
2023/09/05 03:32:50;;;;;;;6.00;3.60;;;11.90;98.70;;;;;;2054369;28;20227;-67
2023/09/05 03:33:51;;;;;;;4.33;3.70;;;11.90;98.70;;;;;;2061785;28;20248;-67
2023/09/05 03:34:52;;;;;;;4.40;3.90;;;11.80;98.70;;;;;;2061953;28;20292;-68
2023/09/05 03:35:53;;;;;;;5.00;3.60;;;11.90;98.90;;;;;;2061473;28;20844;-67
2023/09/05 03:36:53;;;;;;;5.53;3.93;;;11.90;99.00;;;;;;2065400;28;20226;-67
2023/09/05 03:37:54;;;;;;;3.87;3.43;;;11.90;99.10;;;;;;2064686;28;20225;-67
2023/09/05 03:38:55;;;;;;;4.73;3.80;;;11.80;99.20;;;;;;2064675;28;20641;-67
2023/09/05 03:39:55;;;;;;;5.53;3.90;;;11.80;99.30;;;;;;2061663;28;20260;-67
2023/09/05 03:40:56;;;;;;;4.63;3.93;;;11.80;99.50;;;;;;2061705;28;20236;-67
2023/09/05 03:41:57;;;;;;;4.27;3.60;;;11.70;99.50;;;;;;2062828;28;20308;-67
2023/09/05 03:42:57;;;;;;;4.27;3.87;;;11.70;99.50;;;;;;2062234;28;20233;-67
2023/09/05 03:43:58;;;;;;;6.63;3.60;;;11.70;99.50;;;;;;2058256;28;20289;-67
2023/09/05 03:44:59;;;;;;;4.13;3.73;;;11.70;99.40;;;;;;2065813;28;20218;-67
2023/09/05 03:46:00;;;;;;;3.77;3.40;;;11.70;99.30;;;;;;2053534;28;20997;-67
2023/09/05 03:47:01;;;;;;;3.92;3.53;;;11.70;99.30;;;;;;2064614;28;20229;-67
2023/09/05 03:48:02;;;;;;;3.73;3.20;;;11.70;99.20;;;;;;2064937;28;20741;-68
2023/09/05 03:49:02;;;;;;;4.00;3.40;;;11.80;99.40;;;;;;2060718;28;20237;-68
2023/09/05 03:50:04;;;;;;;3.93;3.50;;;11.80;99.40;;;;;;2061909;28;20236;-68
2023/09/05 03:51:05;;;;;;;4.20;3.75;;;11.70;99.20;;;;;;2061470;28;21170;-68
2023/09/05 03:52:05;;;;;;;4.10;3.63;;;11.70;99.30;;;;;;2050715;28;20209;-67
2023/09/05 03:53:06;;;;;;;4.17;3.50;;;11.70;99.20;;;;;;2053401;28;20580;-67
2023/09/05 03:54:07;;;;;;;4.27;3.70;;;11.70;99.10;;;;;;2051778;28;20187;-67
2023/09/05 03:55:08;;;;;;;3.87;3.47;;;11.70;99.10;;;;;;2061728;28;20197;-67
2023/09/05 03:56:08;;;;;;;4.17;3.60;;;11.70;99.10;;;;;;2062011;28;20233;-67
2023/09/05 03:57:09;;;;;;;4.13;3.67;;;11.70;99.20;;;;;;2062830;28;20193;-68
2023/09/05 03:58:11;;;;;;;4.47;3.50;;;11.70;99.20;;;;;;2061956;28;20248;-67
2023/09/05 03:59:11;;;;;;;7.38;3.30;;;11.70;99.20;;;;;;2061702;28;20194;-67
2023/09/05 04:00:12;;;;;;;5.13;3.67;;;11.70;99.10;;;;;;2045225;28;20684;-67
2023/09/05 04:01:14;;;;;;;4.45;3.58;;;11.70;99.10;;;;;;2037998;29;20286;-67
2023/09/05 04:02:16;;;;;;;3.90;3.25;;;11.70;99.00;;;;;;2053630;28;20191;-67
2023/09/05 04:03:17;;;;;;;4.88;3.40;;;11.70;98.90;;;;;;2061385;28;20616;-67
2023/09/05 04:04:18;;;;;;;3.80;3.30;;;11.70;98.90;;;;;;2062250;28;20194;-67
2023/09/05 04:05:21;;;;;;;3.72;3.10;;;11.60;98.90;;;;;;2062148;28;20616;-67
2023/09/05 04:06:21;;;;;;;3.45;3.00;;;11.70;98.90;;;;;;2060924;28;20190;-67
2023/09/05 04:07:23;;;;;;;4.13;3.17;;;11.70;98.90;;;;;;2051723;28;20361;-67
2023/09/05 04:08:23;;;;;;;5.03;3.50;;;11.60;99.00;;;;;;2053401;28;20273;-67
2023/09/05 04:09:24;;;;;;;3.30;3.00;;;11.60;99.20;;;;;;2046017;28;20235;-69
2023/09/05 04:10:25;;;;;;;4.00;3.43;;;11.60;99.30;;;;;;2054274;28;20237;-68
2023/09/05 04:11:26;;;;;;;3.70;3.30;;;11.60;99.40;;;;;;2058377;28;20245;-68
2023/09/05 04:12:26;;;;;;;3.60;3.17;;;11.60;99.40;;;;;;2057788;28;20629;-68
2023/09/05 04:13:27;;;;;;;3.57;3.27;;;11.60;99.40;;;;;;2057943;28;20224;-68
2023/09/05 04:14:28;;;;;;;4.05;3.33;;;11.50;99.50;;;;;;2053999;28;20746;-68
2023/09/05 04:15:29;;;;;;;5.47;3.47;;;11.50;99.70;;;;;;2061504;28;20226;-68
2023/09/05 04:16:30;;;;;;;3.87;3.30;;;11.40;99.60;;;;;;2069494;28;21036;-67
2023/09/05 04:17:30;;;;;;;3.73;3.33;;;11.40;99.70;;;;;;2060142;28;20744;-67
2023/09/05 04:18:33;;;;;;;4.10;3.00;;;11.40;99.70;;;;;;2054505;28;20313;-68
2023/09/05 04:19:33;;;;;;;7.13;3.40;;;11.40;99.70;;;;;;2062578;28;20308;-67
2023/09/05 04:20:34;;;;;;;3.60;2.87;;;11.40;99.60;;;;;;2069514;28;20225;-68
2023/09/05 04:21:35;;;;;;;3.55;2.88;;;11.40;99.50;;;;;;2066945;28;20257;-67
2023/09/05 04:22:36;;;;;;;3.73;3.13;;;11.40;99.50;;;;;;2061445;28;20237;-67
2023/09/05 04:23:37;;;;;;;5.43;3.23;;;11.40;99.40;;;;;;2059679;28;20714;-68
2023/09/05 04:24:37;;;;;;;5.20;3.17;;;11.40;99.40;;;;;;2061400;28;20264;-68
2023/09/05 04:25:42;;;;;;;4.90;3.17;;;11.40;99.30;;;;;;2048208;28;20782;-68
2023/09/05 04:26:44;;;;;;;4.70;3.53;;;11.40;99.40;;;;;;2061740;28;20226;-68
2023/09/05 04:27:45;;;;;;;3.47;2.90;;;11.40;99.70;;;;;;2062428;28;20222;-68
2023/09/05 04:28:46;;;;;;;4.15;3.42;;;11.40;99.70;;;;;;2069178;28;20225;-68
2023/09/05 04:29:51;;;;;;;6.13;3.30;;;11.30;99.70;;;;;;2062468;28;20718;-68
2023/09/05 04:30:55;;;;;;;4.38;3.40;;;11.40;99.60;;;;;;2062392;28;20281;-68
2023/09/05 04:31:56;;;;;;;3.28;2.95;;;11.40;99.60;;;;;;2062189;28;20249;-68
2023/09/05 04:32:57;;;;;;;4.77;3.23;;;11.40;99.60;;;;;;2061290;28;20222;-68
2023/09/05 04:33:58;;;;;;;5.07;3.42;;;11.30;99.60;;;;;;2064975;28;20225;-68
2023/09/05 04:35:02;;;;;;;3.30;3.00;;;11.40;99.70;;;;;;2065244;28;20221;-68
2023/09/05 04:36:07;;;;;;;4.30;3.05;;;11.40;99.80;;;;;;2060722;28;20226;-70
2023/09/05 04:37:08;;;;;;;3.65;3.10;;;11.40;99.70;;;;;;2056462;28;20179;-68
2023/09/05 04:38:09;;;;;;;3.63;3.30;;;11.40;99.50;;;;;;2062974;28;20596;-68
2023/09/05 04:39:10;;;;;;;4.03;3.17;;;11.40;99.60;;;;;;2061708;28;20194;-68
2023/09/05 04:40:12;;;;;;;4.73;3.30;;;11.40;99.50;;;;;;2061558;28;20658;-68
2023/09/05 04:41:13;;;;;;;4.38;3.20;;;11.40;99.40;;;;;;2060559;28;20217;-68
2023/09/05 04:42:14;;;;;;;3.53;2.90;;;11.30;99.30;;;;;;2065868;28;20187;-68
2023/09/05 04:43:15;;;;;;;3.10;2.80;;;11.40;99.30;;;;;;2065435;28;20202;-68
2023/09/05 04:44:15;;;;;;;4.23;2.97;;;11.30;99.40;;;;;;2061718;28;20202;-68
2023/09/05 04:45:16;;;;;;;3.83;2.63;;;11.30;99.40;;;;;;2061550;28;20198;-67
2023/09/05 04:46:17;;;;;;;4.20;2.63;;;11.40;99.80;;;;;;2063380;28;20198;-68
2023/09/05 04:47:28;;;;;;;3.57;2.83;;;11.30;99.30;;;;;;2055521;28;20249;-68
2023/09/05 04:48:29;;;;;;;3.55;2.70;;;11.40;99.30;;;;;;2039111;28;20248;-68
2023/09/05 04:49:30;;;;;;;3.07;2.73;;;11.40;99.20;;;;;;2053710;28;20235;-68
2023/09/05 04:50:30;;;;;;;4.03;3.10;;;11.40;99.30;;;;;;2063687;28;20688;-68
2023/09/05 04:51:31;;;;;;;3.77;2.83;;;11.40;99.20;;;;;;2066468;28;20264;-68
2023/09/05 04:52:32;;;;;;;4.17;2.90;;;11.40;99.20;;;;;;2058417;28;20260;-68
2023/09/05 04:53:34;;;;;;;3.33;2.80;;;11.40;99.20;;;;;;2057604;28;20250;-68
2023/09/05 04:54:35;;;;;;;3.10;2.80;;;11.40;99.30;;;;;;2059981;28;20233;-68
2023/09/05 04:55:36;;;;;;;3.33;3.03;;;11.40;99.10;;;;;;2067206;28;20265;-69
2023/09/05 04:56:36;;;;;;;2.70;2.27;;;11.40;99.10;;;;;;2063060;28;20222;-66
2023/09/05 04:57:37;;;;;;;3.93;2.70;;;11.40;99.10;;;;;;2062939;28;20227;-66
2023/09/05 04:58:38;;;;;;;3.10;2.73;;;11.40;99.00;;;;;;2059715;28;20230;-66
2023/09/05 04:59:40;;;;;;;3.20;2.90;;;11.40;99.10;;;;;;2063887;28;20226;-66
2023/09/05 05:00:41;;;;;;;3.20;2.55;;;11.30;99.20;;;;;;2065519;28;20230;-66
2023/09/05 05:01:42;;;;;;;3.13;2.83;;;11.30;99.20;;;;;;2067397;28;20230;-66
2023/09/05 05:02:43;;;;;;;4.63;3.07;;;11.40;99.20;;;;;;2064765;28;20310;-66
2023/09/05 05:03:44;;;;;;;3.25;2.80;;;11.40;99.30;;;;;;2063611;28;20240;-66
2023/09/05 05:04:45;;;;;;;3.25;2.95;;;11.40;99.30;;;;;;2057000;28;20241;-68
2023/09/05 05:05:48;;;;;;;2.97;2.60;;;11.40;99.40;;;;;;2060504;28;20237;-67
2023/09/05 05:06:49;;;;;;;5.65;3.08;;;11.40;99.30;;;;;;2062792;28;20304;-67
2023/09/05 05:07:50;;;;;;;3.30;2.70;;;11.40;99.40;;;;;;2063151;28;20299;-66
2023/09/05 05:08:51;;;;;;;4.30;2.88;;;11.40;99.10;;;;;;2062721;28;20714;-66
2023/09/05 05:09:52;;;;;;;3.57;2.77;;;11.40;99.10;;;;;;2046528;28;20228;-66
2023/09/05 05:10:52;;;;;;;3.77;2.70;;;11.40;99.70;;;;;;2054572;28;20656;-67
2023/09/05 05:11:54;;;;;;;2.90;2.60;;;11.40;99.30;;;;;;2059116;28;20229;-66
2023/09/05 05:12:55;;;;;;;3.13;2.55;;;11.40;99.20;;;;;;2056919;28;20276;-66
2023/09/05 05:13:55;;;;;;;3.73;2.67;;;11.50;99.00;;;;;;2057026;28;20300;-66
2023/09/05 05:14:56;;;;;;;3.33;2.87;;;11.50;98.70;;;;;;2058251;28;20221;-67
2023/09/05 05:15:57;;;;;;;2.97;2.67;;;11.60;98.60;;;;;;2068923;28;20332;-67
2023/09/05 05:16:57;;;;;;;3.47;2.70;;;11.50;98.60;;;;;;2066872;28;20241;-67
2023/09/05 05:17:59;;;;;;;2.80;2.50;;;11.60;98.60;;;;;;2060493;28;20285;-67
2023/09/05 05:18:59;;;;;;;3.03;2.60;;;11.60;98.60;;;;;;2054993;28;20226;-67
2023/09/05 05:20:00;;;;;;;3.40;2.63;;;11.60;98.60;;;;;;2062768;28;20329;-67
2023/09/05 05:21:01;;;;;;;3.43;3.03;;;11.60;98.60;;;;;;2062269;28;20278;-67